Arcadia, Oklahoma
Current Conditions -  °F | °C
As of 6:53 PM on Friday 24 Oct 2014 (Local Time) from KGOK Reporting Station
Clear Clear  
Wind Chill: 24°   Ceiling: Unl
Heat Index: 24°   Visibility: 10mi
Dew Point: 17°   Wind: 5mph
Humidity: 66%   Direction: 160°SSE
Pressure: 30.01"   Gusts: NA
Location:  35.67°N, 97.33°W
Report Text: KGOK 242353Z AUTO 16004KT 10SM CLR 24/17 A3001 RMK AO2 SLP157 T02390172 10289 20239 57001
Loading
Personal Weather Stations






























Interactive Weather Map New forecast layout! Learn more

10-Day Weather Forecast

Advertisements
Track Severe Weather on mobile